sensor_id;sensor_type;location;lat;lon;timestamp;pressure;altitude;pressure_sealevel;temperature;humidity
54816;BME280;40715;55.752;37.884;2022-12-11T00:00:46;98181.84;;;4.21;75.42
54816;BME280;40715;55.752;37.884;2022-12-11T00:03:15;98179.91;;;4.29;75.57
54816;BME280;40715;55.752;37.884;2022-12-11T00:05:44;98187.72;;;4.30;75.51
54816;BME280;40715;55.752;37.884;2022-12-11T00:08:12;98193.78;;;4.31;75.44
54816;BME280;40715;55.752;37.884;2022-12-11T00:10:39;98199.84;;;4.31;75.19
54816;BME280;40715;55.752;37.884;2022-12-11T00:13:12;98200.66;;;4.35;75.38
54816;BME280;40715;55.752;37.884;2022-12-11T00:15:39;98198.00;;;4.38;75.28
54816;BME280;40715;55.752;37.884;2022-12-11T00:18:11;98198.84;;;4.39;74.95
54816;BME280;40715;55.752;37.884;2022-12-11T00:20:38;98187.53;;;4.40;75.10
54816;BME280;40715;55.752;37.884;2022-12-11T00:23:05;98178.00;;;4.37;75.27
54816;BME280;40715;55.752;37.884;2022-12-11T00:25:32;98178.97;;;4.33;74.96
54816;BME280;40715;55.752;37.884;2022-12-11T00:27:59;98167.84;;;4.25;75.11
54816;BME280;40715;55.752;37.884;2022-12-11T00:30:25;98183.47;;;4.26;75.49
54816;BME280;40715;55.752;37.884;2022-12-11T00:32:52;98176.63;;;4.21;75.65
54816;BME280;40715;55.752;37.884;2022-12-11T00:35:19;98180.00;;;4.24;75.36
54816;BME280;40715;55.752;37.884;2022-12-11T00:37:47;98182.69;;;4.21;75.45
54816;BME280;40715;55.752;37.884;2022-12-11T00:40:14;98183.59;;;4.19;75.67
54816;BME280;40715;55.752;37.884;2022-12-11T00:42:40;98177.44;;;4.23;75.82
54816;BME280;40715;55.752;37.884;2022-12-11T00:45:08;98166.97;;;4.24;75.65
54816;BME280;40715;55.752;37.884;2022-12-11T00:47:35;98169.47;;;4.30;75.33
54816;BME280;40715;55.752;37.884;2022-12-11T00:50:03;98165.13;;;4.29;75.59
54816;BME280;40715;55.752;37.884;2022-12-11T00:52:30;98168.72;;;4.24;75.51
54816;BME280;40715;55.752;37.884;2022-12-11T00:54:56;98180.03;;;4.23;75.87
54816;BME280;40715;55.752;37.884;2022-12-11T00:57:23;98178.31;;;4.23;75.79
54816;BME280;40715;55.752;37.884;2022-12-11T00:59:50;98187.72;;;4.30;75.78
54816;BME280;40715;55.752;37.884;2022-12-11T01:02:17;98190.22;;;4.35;75.38
54816;BME280;40715;55.752;37.884;2022-12-11T01:04:46;98195.41;;;4.37;75.07
54816;BME280;40715;55.752;37.884;2022-12-11T01:07:24;98177.25;;;4.32;75.25
54816;BME280;40715;55.752;37.884;2022-12-11T01:10:15;98191.84;;;4.41;75.20
54816;BME280;40715;55.752;37.884;2022-12-11T01:13:10;98200.50;;;4.43;74.97
54816;BME280;40715;55.752;37.884;2022-12-11T01:15:48;98202.28;;;4.41;75.06
54816;BME280;40715;55.752;37.884;2022-12-11T01:18:33;98196.22;;;4.39;75.41
54816;BME280;40715;55.752;37.884;2022-12-11T01:21:20;98208.31;;;4.43;75.21
54816;BME280;40715;55.752;37.884;2022-12-11T01:23:50;98210.03;;;4.44;75.28
54816;BME280;40715;55.752;37.884;2022-12-11T01:27:11;98215.13;;;4.50;75.25
54816;BME280;40715;55.752;37.884;2022-12-11T01:29:56;98221.34;;;4.43;74.95
54816;BME280;40715;55.752;37.884;2022-12-11T01:32:34;98204.06;;;4.39;75.12
54816;BME280;40715;55.752;37.884;2022-12-11T01:35:30;98209.31;;;4.37;75.56
54816;BME280;40715;55.752;37.884;2022-12-11T01:38:01;98198.00;;;4.38;75.27
54816;BME280;40715;55.752;37.884;2022-12-11T01:40:28;98190.06;;;4.43;75.54
54816;BME280;40715;55.752;37.884;2022-12-11T01:42:55;98191.72;;;4.47;75.03
54816;BME280;40715;55.752;37.884;2022-12-11T01:48:01;98190.78;;;4.51;75.12
54816;BME280;40715;55.752;37.884;2022-12-11T01:50:31;98195.88;;;4.56;74.99
54816;BME280;40715;55.752;37.884;2022-12-11T01:52:59;98202.03;;;4.53;74.95
54816;BME280;40715;55.752;37.884;2022-12-11T01:55:27;98200.22;;;4.57;74.60
54816;BME280;40715;55.752;37.884;2022-12-11T01:57:54;98196.06;;;4.48;75.13
54816;BME280;40715;55.752;37.884;2022-12-11T02:00:21;98204.66;;;4.52;75.02
54816;BME280;40715;55.752;37.884;2022-12-11T02:02:48;98204.59;;;4.56;75.27
54816;BME280;40715;55.752;37.884;2022-12-11T02:05:15;98215.81;;;4.60;75.05
54816;BME280;40715;55.752;37.884;2022-12-11T02:07:46;98219.22;;;4.63;74.67
54816;BME280;40715;55.752;37.884;2022-12-11T02:10:15;98204.41;;;4.64;74.61
54816;BME280;40715;55.752;37.884;2022-12-11T02:13:00;98201.75;;;4.67;74.65
54816;BME280;40715;55.752;37.884;2022-12-11T02:15:35;98194.81;;;4.66;74.72
54816;BME280;40715;55.752;37.884;2022-12-11T02:18:18;98192.16;;;4.69;74.37
54816;BME280;40715;55.752;37.884;2022-12-11T02:21:14;98195.63;;;4.68;74.74
54816;BME280;40715;55.752;37.884;2022-12-11T02:27:09;98227.72;;;4.72;74.48
54816;BME280;40715;55.752;37.884;2022-12-11T02:29:52;98213.94;;;4.66;74.40
54816;BME280;40715;55.752;37.884;2022-12-11T02:32:36;98225.34;;;4.61;74.50
54816;BME280;40715;55.752;37.884;2022-12-11T02:35:14;98228.78;;;4.63;74.86
54816;BME280;40715;55.752;37.884;2022-12-11T02:37:45;98240.94;;;4.64;74.47
54816;BME280;40715;55.752;37.884;2022-12-11T02:40:16;98224.41;;;4.65;74.41
54816;BME280;40715;55.752;37.884;2022-12-11T02:42:47;98245.22;;;4.68;74.37
54816;BME280;40715;55.752;37.884;2022-12-11T02:45:18;98246.88;;;4.72;74.24
54816;BME280;40715;55.752;37.884;2022-12-11T02:47:47;98249.41;;;4.75;74.18
54816;BME280;40715;55.752;37.884;2022-12-11T02:50:18;98245.00;;;4.77;74.26
54816;BME280;40715;55.752;37.884;2022-12-11T02:52:49;98259.78;;;4.78;74.15
54816;BME280;40715;55.752;37.884;2022-12-11T02:55:18;98250.34;;;4.71;74.11
54816;BME280;40715;55.752;37.884;2022-12-11T02:58:03;98252.94;;;4.73;74.40
54816;BME280;40715;55.752;37.884;2022-12-11T03:00:32;98251.97;;;4.77;73.97
54816;BME280;40715;55.752;37.884;2022-12-11T03:03:00;98247.59;;;4.77;74.15
54816;BME280;40715;55.752;37.884;2022-12-11T03:05:28;98263.19;;;4.82;74.32
54816;BME280;40715;55.752;37.884;2022-12-11T03:07:55;98262.31;;;4.81;73.81
54816;BME280;40715;55.752;37.884;2022-12-11T03:10:22;98257.06;;;4.83;73.96
54816;BME280;40715;55.752;37.884;2022-12-11T03:12:51;98258.91;;;4.79;73.88
54816;BME280;40715;55.752;37.884;2022-12-11T03:15:20;98262.28;;;4.83;74.08
54816;BME280;40715;55.752;37.884;2022-12-11T03:20:46;98265.84;;;4.80;73.76
54816;BME280;40715;55.752;37.884;2022-12-11T03:23:44;98268.38;;;4.83;74.38
54816;BME280;40715;55.752;37.884;2022-12-11T03:26:16;98280.59;;;4.81;73.88
54816;BME280;40715;55.752;37.884;2022-12-11T03:28:55;98274.59;;;4.78;74.02
54816;BME280;40715;55.752;37.884;2022-12-11T03:31:35;98287.53;;;4.82;73.89
54816;BME280;40715;55.752;37.884;2022-12-11T03:34:12;98284.19;;;4.76;74.08
54816;BME280;40715;55.752;37.884;2022-12-11T03:36:42;98295.34;;;4.82;73.80
54816;BME280;40715;55.752;37.884;2022-12-11T03:39:42;98301.38;;;4.86;74.13
54816;BME280;40715;55.752;37.884;2022-12-11T03:42:12;98296.22;;;4.83;73.73
54816;BME280;40715;55.752;37.884;2022-12-11T03:44:43;98285.88;;;4.78;73.99
54816;BME280;40715;55.752;37.884;2022-12-11T03:47:15;98294.47;;;4.83;73.68
54816;BME280;40715;55.752;37.884;2022-12-11T03:49:44;98296.22;;;4.83;74.05
54816;BME280;40715;55.752;37.884;2022-12-11T03:52:11;98304.97;;;4.80;73.79
54816;BME280;40715;55.752;37.884;2022-12-11T03:54:42;98305.88;;;4.79;74.12
54816;BME280;40715;55.752;37.884;2022-12-11T03:57:12;98316.31;;;4.79;74.12
54816;BME280;40715;55.752;37.884;2022-12-11T03:59:41;98316.28;;;4.81;74.08
54816;BME280;40715;55.752;37.884;2022-12-11T04:02:09;98324.16;;;4.78;73.98
54816;BME280;40715;55.752;37.884;2022-12-11T04:04:40;98314.78;;;4.69;73.78
54816;BME280;40715;55.752;37.884;2022-12-11T04:07:08;98326.88;;;4.73;74.17
54816;BME280;40715;55.752;37.884;2022-12-11T04:09:35;98330.34;;;4.72;74.22
54816;BME280;40715;55.752;37.884;2022-12-11T04:12:02;98332.09;;;4.73;74.34
54816;BME280;40715;55.752;37.884;2022-12-11T04:14:30;98331.28;;;4.70;74.10
54816;BME280;40715;55.752;37.884;2022-12-11T04:17:15;98335.53;;;4.74;74.17
54816;BME280;40715;55.752;37.884;2022-12-11T04:20:03;98332.00;;;4.78;74.22
54816;BME280;40715;55.752;37.884;2022-12-11T04:22:49;98324.28;;;4.70;74.15
54816;BME280;40715;55.752;37.884;2022-12-11T04:25:35;98345.81;;;4.81;74.12
54816;BME280;40715;55.752;37.884;2022-12-11T04:28:02;98343.19;;;4.84;74.38
54816;BME280;40715;55.752;37.884;2022-12-11T04:30:29;98345.75;;;4.86;74.24
54816;BME280;40715;55.752;37.884;2022-12-11T04:32:59;98348.41;;;4.84;73.84
54816;BME280;40715;55.752;37.884;2022-12-11T04:35:26;98340.56;;;4.84;74.18
54816;BME280;40715;55.752;37.884;2022-12-11T04:37:53;98316.50;;;4.69;74.05
54816;BME280;40715;55.752;37.884;2022-12-11T04:40:20;98342.28;;;4.84;74.32
54816;BME280;40715;55.752;37.884;2022-12-11T04:42:47;98338.88;;;4.82;73.85
54816;BME280;40715;55.752;37.884;2022-12-11T04:45:14;98330.47;;;4.68;74.34
54816;BME280;40715;55.752;37.884;2022-12-11T04:47:41;98352.97;;;4.73;74.35
54816;BME280;40715;55.752;37.884;2022-12-11T04:50:10;98346.00;;;4.72;73.89
54816;BME280;40715;55.752;37.884;2022-12-11T04:52:38;98341.81;;;4.65;74.37
54816;BME280;40715;55.752;37.884;2022-12-11T04:55:05;98351.31;;;4.68;74.39
54816;BME280;40715;55.752;37.884;2022-12-11T04:57:34;98353.03;;;4.69;74.85
54816;BME280;40715;55.752;37.884;2022-12-11T05:00:03;98353.88;;;4.71;74.69
54816;BME280;40715;55.752;37.884;2022-12-11T05:02:34;98352.13;;;4.71;74.83
54816;BME280;40715;55.752;37.884;2022-12-11T05:05:03;98356.44;;;4.72;74.70
54816;BME280;40715;55.752;37.884;2022-12-11T05:07:31;98346.09;;;4.69;74.80
54816;BME280;40715;55.752;37.884;2022-12-11T05:09:58;98346.91;;;4.71;74.88
54816;BME280;40715;55.752;37.884;2022-12-11T05:12:24;98352.06;;;4.74;74.63
54816;BME280;40715;55.752;37.884;2022-12-11T05:14:52;98345.94;;;4.75;74.41
54816;BME280;40715;55.752;37.884;2022-12-11T05:17:20;98359.84;;;4.76;74.68
54816;BME280;40715;55.752;37.884;2022-12-11T05:19:48;98343.50;;;4.68;74.51
54816;BME280;40715;55.752;37.884;2022-12-11T05:22:17;98361.53;;;4.78;74.21
54816;BME280;40715;55.752;37.884;2022-12-11T05:24:44;98358.97;;;4.77;74.51
54816;BME280;40715;55.752;37.884;2022-12-11T05:27:11;98363.31;;;4.78;74.25
54816;BME280;40715;55.752;37.884;2022-12-11T05:29:38;98362.56;;;4.71;74.32
54816;BME280;40715;55.752;37.884;2022-12-11T05:32:05;98378.09;;;4.77;74.23
54816;BME280;40715;55.752;37.884;2022-12-11T05:34:32;98383.38;;;4.74;74.19
54816;BME280;40715;55.752;37.884;2022-12-11T05:37:00;98384.22;;;4.76;74.58
54816;BME280;40715;55.752;37.884;2022-12-11T05:39:28;98383.31;;;4.77;74.20
54816;BME280;40715;55.752;37.884;2022-12-11T05:41:54;98387.75;;;4.72;74.60
54816;BME280;40715;55.752;37.884;2022-12-11T05:44:21;98392.91;;;4.75;74.35
54816;BME280;40715;55.752;37.884;2022-12-11T05:46:48;98398.09;;;4.77;74.22
54816;BME280;40715;55.752;37.884;2022-12-11T05:49:15;98402.59;;;4.69;74.52
54816;BME280;40715;55.752;37.884;2022-12-11T05:51:45;98412.97;;;4.72;74.45
54816;BME280;40715;55.752;37.884;2022-12-11T05:54:13;98409.69;;;4.62;74.26
54816;BME280;40715;55.752;37.884;2022-12-11T05:56:40;98431.25;;;4.72;74.77
54816;BME280;40715;55.752;37.884;2022-12-11T05:59:08;98437.28;;;4.75;74.28
54816;BME280;40715;55.752;37.884;2022-12-11T06:01:37;98451.25;;;4.73;74.43
54816;BME280;40715;55.752;37.884;2022-12-11T06:04:07;98456.41;;;4.76;74.28
54816;BME280;40715;55.752;37.884;2022-12-11T06:06:37;98460.69;;;4.80;74.60
54816;BME280;40715;55.752;37.884;2022-12-11T06:09:04;98463.22;;;4.83;74.22
54816;BME280;40715;55.752;37.884;2022-12-11T06:11:32;98471.06;;;4.84;73.74
54816;BME280;40715;55.752;37.884;2022-12-11T06:14:01;98470.28;;;4.78;74.44
54816;BME280;40715;55.752;37.884;2022-12-11T06:16:28;98475.47;;;4.81;74.21
54816;BME280;40715;55.752;37.884;2022-12-11T06:18:55;98470.25;;;4.81;74.53
54816;BME280;40715;55.752;37.884;2022-12-11T06:21:26;98459.84;;;4.78;74.05
54816;BME280;40715;55.752;37.884;2022-12-11T06:23:55;98489.31;;;4.86;73.95
54816;BME280;40715;55.752;37.884;2022-12-11T06:26:22;98497.13;;;4.86;74.04
54816;BME280;40715;55.752;37.884;2022-12-11T06:28:49;98491.13;;;4.81;73.86
54816;BME280;40715;55.752;37.884;2022-12-11T06:31:17;98493.75;;;4.79;74.13
54816;BME280;40715;55.752;37.884;2022-12-11T06:33:44;98490.25;;;4.82;74.18
54816;BME280;40715;55.752;37.884;2022-12-11T06:36:19;98495.41;;;4.85;74.28
54816;BME280;40715;55.752;37.884;2022-12-11T06:38:46;98497.06;;;4.89;74.05
54816;BME280;40715;55.752;37.884;2022-12-11T06:41:13;98502.19;;;4.94;74.37
54816;BME280;40715;55.752;37.884;2022-12-11T06:43:41;98469.41;;;4.77;73.98
54816;BME280;40715;55.752;37.884;2022-12-11T06:46:11;98503.84;;;4.99;74.03
54816;BME280;40715;55.752;37.884;2022-12-11T06:48:39;98502.91;;;5.04;74.00
54816;BME280;40715;55.752;37.884;2022-12-11T06:51:10;98495.91;;;5.04;74.11
54816;BME280;40715;55.752;37.884;2022-12-11T06:53:38;98492.50;;;5.02;73.96
54816;BME280;40715;55.752;37.884;2022-12-11T06:56:08;98496.84;;;5.03;73.99
54816;BME280;40715;55.752;37.884;2022-12-11T06:58:36;98515.09;;;5.03;73.83
54816;BME280;40715;55.752;37.884;2022-12-11T07:01:04;98488.22;;;4.98;74.08
54816;BME280;40715;55.752;37.884;2022-12-11T07:03:31;98498.66;;;4.98;74.16
54816;BME280;40715;55.752;37.884;2022-12-11T07:06:01;98494.25;;;5.00;74.00
54816;BME280;40715;55.752;37.884;2022-12-11T07:08:29;98503.78;;;5.03;74.29
54816;BME280;40715;55.752;37.884;2022-12-11T07:11:04;98497.66;;;5.05;74.19
54816;BME280;40715;55.752;37.884;2022-12-11T07:13:32;98508.88;;;5.10;73.79
54816;BME280;40715;55.752;37.884;2022-12-11T07:15:59;98505.41;;;5.10;74.21
54816;BME280;40715;55.752;37.884;2022-12-11T07:18:27;98507.06;;;5.14;73.86
54816;BME280;40715;55.752;37.884;2022-12-11T07:20:57;98511.38;;;5.16;73.37
54816;BME280;40715;55.752;37.884;2022-12-11T07:23:26;98515.81;;;5.11;73.66
54816;BME280;40715;55.752;37.884;2022-12-11T07:25:55;98534.84;;;5.18;73.36
54816;BME280;40715;55.752;37.884;2022-12-11T07:28:22;98538.41;;;5.14;73.47
54816;BME280;40715;55.752;37.884;2022-12-11T07:30:49;98546.22;;;5.14;73.74
54816;BME280;40715;55.752;37.884;2022-12-11T07:33:16;98536.63;;;5.16;73.98
54816;BME280;40715;55.752;37.884;2022-12-11T07:35:43;98537.47;;;5.18;73.55
54816;BME280;40715;55.752;37.884;2022-12-11T07:38:10;98504.56;;;5.08;73.40
54816;BME280;40715;55.752;37.884;2022-12-11T07:40:37;98531.31;;;5.21;73.61
54816;BME280;40715;55.752;37.884;2022-12-11T07:43:04;98533.13;;;5.17;73.74
54816;BME280;40715;55.752;37.884;2022-12-11T07:45:31;98516.78;;;5.06;73.52
54816;BME280;40715;55.752;37.884;2022-12-11T07:47:58;98542.63;;;5.21;73.22
54816;BME280;40715;55.752;37.884;2022-12-11T07:50:25;98534.69;;;5.26;73.41
54816;BME280;40715;55.752;37.884;2022-12-11T07:52:52;98532.88;;;5.31;73.71
54816;BME280;40715;55.752;37.884;2022-12-11T07:55:19;98530.19;;;5.34;73.22
54816;BME280;40715;55.752;37.884;2022-12-11T07:57:46;98535.31;;;5.39;73.25
54816;BME280;40715;55.752;37.884;2022-12-11T08:00:13;98540.56;;;5.39;73.13
54816;BME280;40715;55.752;37.884;2022-12-11T08:02:40;98531.16;;;5.30;72.82
54816;BME280;40715;55.752;37.884;2022-12-11T08:05:07;98524.56;;;5.10;73.63
54816;BME280;40715;55.752;37.884;2022-12-11T08:07:35;98544.38;;;5.21;73.36
54816;BME280;40715;55.752;37.884;2022-12-11T08:10:02;98543.63;;;5.14;73.79
54816;BME280;40715;55.752;37.884;2022-12-11T08:12:30;98547.09;;;5.16;73.86
54816;BME280;40715;55.752;37.884;2022-12-11T08:14:57;98563.34;;;5.32;73.61
54816;BME280;40715;55.752;37.884;2022-12-11T08:17:24;98566.69;;;5.39;73.26
54816;BME280;40715;55.752;37.884;2022-12-11T08:20:02;98567.50;;;5.42;73.32
54816;BME280;40715;55.752;37.884;2022-12-11T08:22:29;98562.22;;;5.45;73.23
54816;BME280;40715;55.752;37.884;2022-12-11T08:24:56;98566.53;;;5.48;73.11
54816;BME280;40715;55.752;37.884;2022-12-11T08:27:30;98557.03;;;5.42;73.12
54816;BME280;40715;55.752;37.884;2022-12-11T08:29:57;98561.44;;;5.40;73.21
54816;BME280;40715;55.752;37.884;2022-12-11T08:32:24;98560.50;;;5.43;73.26
54816;BME280;40715;55.752;37.884;2022-12-11T08:34:51;98555.59;;;5.27;72.75
54816;BME280;40715;55.752;37.884;2022-12-11T08:37:18;98576.50;;;5.24;73.01
54816;BME280;40715;55.752;37.884;2022-12-11T08:39:45;98582.69;;;5.20;73.81
54816;BME280;40715;55.752;37.884;2022-12-11T08:42:12;98571.25;;;5.27;74.17
54816;BME280;40715;55.752;37.884;2022-12-11T08:44:39;98575.56;;;5.28;73.50
54816;BME280;40715;55.752;37.884;2022-12-11T08:47:07;98585.97;;;5.31;73.65
54816;BME280;40715;55.752;37.884;2022-12-11T08:49:35;98592.97;;;5.29;73.30
54816;BME280;40715;55.752;37.884;2022-12-11T08:52:03;98592.16;;;5.27;73.60
54816;BME280;40715;55.752;37.884;2022-12-11T08:54:31;98587.78;;;5.28;73.87
54816;BME280;40715;55.752;37.884;2022-12-11T08:56:58;98592.88;;;5.34;73.63
54816;BME280;40715;55.752;37.884;2022-12-11T08:59:26;98597.13;;;5.40;73.93
54816;BME280;40715;55.752;37.884;2022-12-11T09:01:54;98603.13;;;5.46;73.63
54816;BME280;40715;55.752;37.884;2022-12-11T09:04:22;98601.31;;;5.50;73.72
54816;BME280;40715;55.752;37.884;2022-12-11T09:06:49;98611.72;;;5.51;73.70
54816;BME280;40715;55.752;37.884;2022-12-11T09:09:16;98610.84;;;5.52;73.44
54816;BME280;40715;55.752;37.884;2022-12-11T09:11:44;98595.31;;;5.45;73.58
54816;BME280;40715;55.752;37.884;2022-12-11T09:14:12;98609.06;;;5.56;73.64
54816;BME280;40715;55.752;37.884;2022-12-11T09:16:39;98611.53;;;5.62;73.28
54816;BME280;40715;55.752;37.884;2022-12-11T09:19:09;98618.41;;;5.68;73.44
54816;BME280;40715;55.752;37.884;2022-12-11T09:21:38;98613.28;;;5.63;73.52
54816;BME280;40715;55.752;37.884;2022-12-11T09:24:05;98570.22;;;5.36;73.48
54816;BME280;40715;55.752;37.884;2022-12-11T09:26:32;98617.59;;;5.66;73.19
54816;BME280;40715;55.752;37.884;2022-12-11T09:29:02;98620.22;;;5.64;73.21
54816;BME280;40715;55.752;37.884;2022-12-11T09:31:31;98620.22;;;5.64;73.52
54816;BME280;40715;55.752;37.884;2022-12-11T09:34:00;98634.16;;;5.65;73.13
54816;BME280;40715;55.752;37.884;2022-12-11T09:36:28;98632.44;;;5.62;73.40
54816;BME280;40715;55.752;37.884;2022-12-11T09:38:59;98629.97;;;5.55;73.19
54816;BME280;40715;55.752;37.884;2022-12-11T09:41:37;98638.78;;;5.49;73.71
54816;BME280;40715;55.752;37.884;2022-12-11T09:44:15;98635.31;;;5.47;73.72
54816;BME280;40715;55.752;37.884;2022-12-11T09:46:44;98640.63;;;5.42;73.45
54816;BME280;40715;55.752;37.884;2022-12-11T09:52:19;98653.84;;;5.33;73.91
54816;BME280;40715;55.752;37.884;2022-12-11T09:54:53;98651.28;;;5.30;74.00
54816;BME280;40715;55.752;37.884;2022-12-11T10:00:38;98661.41;;;5.50;73.91
54816;BME280;40715;55.752;37.884;2022-12-11T10:05:49;98668.59;;;5.37;74.24
54816;BME280;40715;55.752;37.884;2022-12-11T10:08:38;98672.06;;;5.38;73.81
54816;BME280;40715;55.752;37.884;2022-12-11T10:16:51;98670.19;;;5.47;73.95
54816;BME280;40715;55.752;37.884;2022-12-11T10:19:28;98637.22;;;5.39;73.89
54816;BME280;40715;55.752;37.884;2022-12-11T10:21:56;98649.31;;;5.46;73.93
54816;BME280;40715;55.752;37.884;2022-12-11T10:24:50;98665.81;;;5.48;73.98
54816;BME280;40715;55.752;37.884;2022-12-11T10:27:38;98664.94;;;5.47;73.75
54816;BME280;40715;55.752;37.884;2022-12-11T10:30:18;98642.41;;;5.42;73.71
54816;BME280;40715;55.752;37.884;2022-12-11T10:35:28;98640.56;;;5.47;74.07
54816;BME280;40715;55.752;37.884;2022-12-11T10:40:58;98625.09;;;5.36;73.59
54816;BME280;40715;55.752;37.884;2022-12-11T10:43:45;98649.34;;;5.41;74.16
54816;BME280;40715;55.752;37.884;2022-12-11T10:46:25;98631.28;;;5.30;73.96
54816;BME280;40715;55.752;37.884;2022-12-11T10:48:56;98648.56;;;5.38;74.00
54816;BME280;40715;55.752;37.884;2022-12-11T10:54:17;98639.16;;;5.27;74.41
54816;BME280;40715;55.752;37.884;2022-12-11T10:56:53;98658.09;;;5.40;73.86
54816;BME280;40715;55.752;37.884;2022-12-11T10:59:35;98644.47;;;5.21;73.89
54816;BME280;40715;55.752;37.884;2022-12-11T11:02:05;98648.88;;;5.19;73.95
54816;BME280;40715;55.752;37.884;2022-12-11T11:04:40;98646.34;;;5.13;74.32
54816;BME280;40715;55.752;37.884;2022-12-11T11:07:13;98649.88;;;5.10;74.04
54816;BME280;40715;55.752;37.884;2022-12-11T11:09:42;98630.09;;;4.94;73.63
54816;BME280;40715;55.752;37.884;2022-12-11T11:12:23;98645.81;;;4.91;73.75
54816;BME280;40715;55.752;37.884;2022-12-11T11:15:03;98641.09;;;4.57;73.19
54816;BME280;40715;55.752;37.884;2022-12-11T11:17:32;98642.88;;;4.55;74.54
54816;BME280;40715;55.752;37.884;2022-12-11T11:20:21;98642.09;;;4.46;74.35
54816;BME280;40715;55.752;37.884;2022-12-11T11:22:51;98634.22;;;4.49;75.03
54816;BME280;40715;55.752;37.884;2022-12-11T11:25:22;98647.16;;;4.57;74.68
54816;BME280;40715;55.752;37.884;2022-12-11T11:27:59;98642.06;;;4.48;74.81
54816;BME280;40715;55.752;37.884;2022-12-11T11:30:29;98635.19;;;4.44;74.29
54816;BME280;40715;55.752;37.884;2022-12-11T11:33:01;98631.00;;;4.32;74.41
54816;BME280;40715;55.752;37.884;2022-12-11T11:35:31;98633.59;;;4.29;74.93
54816;BME280;40715;55.752;37.884;2022-12-11T11:40:38;98629.22;;;4.34;75.52
54816;BME280;40715;55.752;37.884;2022-12-11T11:44:01;98637.91;;;4.33;74.94
54816;BME280;40715;55.752;37.884;2022-12-11T11:46:19;98630.25;;;4.21;74.44
54816;BME280;40715;55.752;37.884;2022-12-11T11:51:38;98622.75;;;3.94;74.85
54816;BME280;40715;55.752;37.884;2022-12-11T11:56:47;98631.19;;;4.15;75.72
54816;BME280;40715;55.752;37.884;2022-12-11T11:59:24;98639.78;;;4.22;75.76
54816;BME280;40715;55.752;37.884;2022-12-11T12:01:55;98618.25;;;4.06;75.38
54816;BME280;40715;55.752;37.884;2022-12-11T12:04:26;98636.44;;;4.10;75.14
54816;BME280;40715;55.752;37.884;2022-12-11T12:10:20;98632.38;;;3.86;75.20
54816;BME280;40715;55.752;37.884;2022-12-11T12:13:21;98641.09;;;3.85;75.75
54816;BME280;40715;55.752;37.884;2022-12-11T12:16:26;98645.44;;;3.85;75.89
54816;BME280;40715;55.752;37.884;2022-12-11T12:21:53;98642.81;;;3.85;75.86
54816;BME280;40715;55.752;37.884;2022-12-11T12:27:02;98657.69;;;3.78;74.94
54816;BME280;40715;55.752;37.884;2022-12-11T12:33:00;98652.69;;;3.53;75.87
54816;BME280;40715;55.752;37.884;2022-12-11T12:35:37;98647.47;;;3.55;75.90
54816;BME280;40715;55.752;37.884;2022-12-11T12:48:29;98652.78;;;3.45;75.97
54816;BME280;40715;55.752;37.884;2022-12-11T12:50:57;98651.94;;;3.42;75.19
54816;BME280;40715;55.752;37.884;2022-12-11T12:53:27;98643.38;;;3.32;76.09
54816;BME280;40715;55.752;37.884;2022-12-11T12:55:58;98640.75;;;3.34;76.03
54816;BME280;40715;55.752;37.884;2022-12-11T13:04:01;98611.41;;;3.13;76.36
54816;BME280;40715;55.752;37.884;2022-12-11T13:09:21;98657.13;;;3.42;76.32
54816;BME280;40715;55.752;37.884;2022-12-11T13:11:52;98655.41;;;3.42;76.13
54816;BME280;40715;55.752;37.884;2022-12-11T13:14:29;98661.50;;;3.40;76.46
54816;BME280;40715;55.752;37.884;2022-12-11T13:17:04;98651.06;;;3.41;75.73
54816;BME280;40715;55.752;37.884;2022-12-11T13:19:33;98646.78;;;3.37;76.13
54816;BME280;40715;55.752;37.884;2022-12-11T13:27:37;98648.41;;;3.46;76.66
54816;BME280;40715;55.752;37.884;2022-12-11T13:30:06;98644.94;;;3.49;75.89
54816;BME280;40715;55.752;37.884;2022-12-11T13:32:34;98629.34;;;3.44;76.43
54816;BME280;40715;55.752;37.884;2022-12-11T13:35:04;98620.81;;;3.30;76.09
54816;BME280;40715;55.752;37.884;2022-12-11T13:37:40;98624.31;;;3.27;75.85
54816;BME280;40715;55.752;37.884;2022-12-11T13:40:22;98625.22;;;3.21;76.37
54816;BME280;40715;55.752;37.884;2022-12-11T13:43:00;98602.75;;;3.11;76.18
54816;BME280;40715;55.752;37.884;2022-12-11T13:48:15;98600.06;;;3.19;76.79
54816;BME280;40715;55.752;37.884;2022-12-11T13:50:44;98599.19;;;3.20;76.52
54816;BME280;40715;55.752;37.884;2022-12-11T13:53:17;98595.72;;;3.21;76.00
54816;BME280;40715;55.752;37.884;2022-12-11T13:55:44;98607.84;;;3.23;76.44
54816;BME280;40715;55.752;37.884;2022-12-11T13:58:19;98594.88;;;3.19;75.98
54816;BME280;40715;55.752;37.884;2022-12-11T14:01:08;98602.78;;;3.09;76.24
54816;BME280;40715;55.752;37.884;2022-12-11T14:03:46;98580.28;;;2.99;75.82
54816;BME280;40715;55.752;37.884;2022-12-11T14:06:15;98591.59;;;2.97;76.24
54816;BME280;40715;55.752;37.884;2022-12-11T14:08:47;98594.22;;;2.95;76.39
54816;BME280;40715;55.752;37.884;2022-12-11T14:11:24;98580.44;;;2.84;76.16
54816;BME280;40715;55.752;37.884;2022-12-11T14:13:57;98603.78;;;2.90;76.41
54816;BME280;40715;55.752;37.884;2022-12-11T14:16:26;98597.72;;;2.86;76.33
54816;BME280;40715;55.752;37.884;2022-12-11T14:19:01;98576.06;;;2.84;76.63
54816;BME280;40715;55.752;37.884;2022-12-11T14:21:30;98565.59;;;2.90;76.54
54816;BME280;40715;55.752;37.884;2022-12-11T14:23:59;98582.88;;;2.99;76.67
54816;BME280;40715;55.752;37.884;2022-12-11T14:26:32;98580.38;;;2.90;76.20
54816;BME280;40715;55.752;37.884;2022-12-11T14:28:59;98547.66;;;2.59;76.02
54816;BME280;40715;55.752;37.884;2022-12-11T14:31:33;98560.53;;;2.78;76.58
54816;BME280;40715;55.752;37.884;2022-12-11T14:34:26;98555.22;;;2.89;77.08
54816;BME280;40715;55.752;37.884;2022-12-11T14:36:55;98558.69;;;2.89;76.14
54816;BME280;40715;55.752;37.884;2022-12-11T14:39:35;98561.31;;;2.86;76.69
54816;BME280;40715;55.752;37.884;2022-12-11T14:42:11;98549.13;;;2.91;76.46